sensor_id;sensor_type;location;lat;lon;timestamp;temperature;humidity
16327;DHT22;34812;49.846;9.610;2022-07-22T00:00:50;17.10;99.90
16327;DHT22;34812;49.846;9.610;2022-07-22T00:01:51;17.00;99.90
16327;DHT22;34812;49.846;9.610;2022-07-22T00:02:53;17.00;99.90
16327;DHT22;34812;49.846;9.610;2022-07-22T00:03:54;17.00;99.90
16327;DHT22;34812;49.846;9.610;2022-07-22T00:04:55;16.90;99.90
16327;DHT22;34812;49.846;9.610;2022-07-22T00:05:56;16.90;99.90
16327;DHT22;34812;49.846;9.610;2022-07-22T00:06:58;16.90;99.90
16327;DHT22;34812;49.846;9.610;2022-07-22T00:07:59;16.90;99.90
16327;DHT22;34812;49.846;9.610;2022-07-22T00:09:00;16.90;99.90
16327;DHT22;34812;49.846;9.610;2022-07-22T00:10:02;16.80;99.90
16327;DHT22;34812;49.846;9.610;2022-07-22T00:11:04;16.80;99.90
16327;DHT22;34812;49.846;9.610;2022-07-22T00:12:06;16.80;99.90
16327;DHT22;34812;49.846;9.610;2022-07-22T00:13:08;16.80;99.90
16327;DHT22;34812;49.846;9.610;2022-07-22T00:14:08;16.80;99.90
16327;DHT22;34812;49.846;9.610;2022-07-22T00:15:11;16.80;99.90
16327;DHT22;34812;49.846;9.610;2022-07-22T00:16:13;16.80;99.90
16327;DHT22;34812;49.846;9.610;2022-07-22T00:17:15;16.70;99.90
16327;DHT22;34812;49.846;9.610;2022-07-22T00:18:16;16.70;99.90
16327;DHT22;34812;49.846;9.610;2022-07-22T00:19:17;16.70;99.90
16327;DHT22;34812;49.846;9.610;2022-07-22T00:20:18;16.70;99.90
16327;DHT22;34812;49.846;9.610;2022-07-22T00:21:20;16.70;99.90
16327;DHT22;34812;49.846;9.610;2022-07-22T00:22:21;16.70;99.90
16327;DHT22;34812;49.846;9.610;2022-07-22T00:23:22;16.70;99.90
16327;DHT22;34812;49.846;9.610;2022-07-22T00:24:23;16.70;99.90
16327;DHT22;34812;49.846;9.610;2022-07-22T00:25:25;16.70;99.90
16327;DHT22;34812;49.846;9.610;2022-07-22T00:26:26;16.70;99.90
16327;DHT22;34812;49.846;9.610;2022-07-22T00:27:27;16.60;99.90
16327;DHT22;34812;49.846;9.610;2022-07-22T00:28:28;16.60;99.90
16327;DHT22;34812;49.846;9.610;2022-07-22T00:29:30;16.60;99.90
16327;DHT22;34812;49.846;9.610;2022-07-22T00:30:32;16.60;99.90
16327;DHT22;34812;49.846;9.610;2022-07-22T00:31:34;16.50;99.90
16327;DHT22;34812;49.846;9.610;2022-07-22T00:32:35;16.50;99.90
16327;DHT22;34812;49.846;9.610;2022-07-22T00:33:37;16.50;99.90
16327;DHT22;34812;49.846;9.610;2022-07-22T00:34:37;16.50;99.90
16327;DHT22;34812;49.846;9.610;2022-07-22T00:35:39;16.50;99.90
16327;DHT22;34812;49.846;9.610;2022-07-22T00:36:40;16.60;99.90
16327;DHT22;34812;49.846;9.610;2022-07-22T00:37:42;16.50;99.90
16327;DHT22;34812;49.846;9.610;2022-07-22T00:38:43;16.50;99.90
16327;DHT22;34812;49.846;9.610;2022-07-22T00:39:44;16.50;99.90
16327;DHT22;34812;49.846;9.610;2022-07-22T00:40:45;16.50;99.90
16327;DHT22;34812;49.846;9.610;2022-07-22T00:41:47;16.50;99.90
16327;DHT22;34812;49.846;9.610;2022-07-22T00:42:47;16.50;99.90
16327;DHT22;34812;49.846;9.610;2022-07-22T00:43:54;16.50;99.90
16327;DHT22;34812;49.846;9.610;2022-07-22T00:44:55;16.50;99.90
16327;DHT22;34812;49.846;9.610;2022-07-22T00:45:58;16.50;99.90
16327;DHT22;34812;49.846;9.610;2022-07-22T00:46:59;16.40;99.90
16327;DHT22;34812;49.846;9.610;2022-07-22T00:48:01;16.40;99.90
16327;DHT22;34812;49.846;9.610;2022-07-22T00:49:02;16.30;99.90
16327;DHT22;34812;49.846;9.610;2022-07-22T00:50:05;16.30;99.90
16327;DHT22;34812;49.846;9.610;2022-07-22T00:51:05;16.30;99.90
16327;DHT22;34812;49.846;9.610;2022-07-22T00:52:07;16.20;99.90
16327;DHT22;34812;49.846;9.610;2022-07-22T00:53:09;16.20;99.90
16327;DHT22;34812;49.846;9.610;2022-07-22T00:54:10;16.20;99.90
16327;DHT22;34812;49.846;9.610;2022-07-22T00:55:12;16.20;99.90
16327;DHT22;34812;49.846;9.610;2022-07-22T00:56:13;16.20;99.90
16327;DHT22;34812;49.846;9.610;2022-07-22T00:57:15;16.20;99.90
16327;DHT22;34812;49.846;9.610;2022-07-22T00:58:16;16.20;99.90
16327;DHT22;34812;49.846;9.610;2022-07-22T00:59:17;16.10;99.90
16327;DHT22;34812;49.846;9.610;2022-07-22T01:00:20;16.10;99.90
16327;DHT22;34812;49.846;9.610;2022-07-22T01:01:23;16.20;99.90
16327;DHT22;34812;49.846;9.610;2022-07-22T01:02:24;16.20;99.90
16327;DHT22;34812;49.846;9.610;2022-07-22T01:03:26;16.20;99.90
16327;DHT22;34812;49.846;9.610;2022-07-22T01:04:27;16.20;99.90
16327;DHT22;34812;49.846;9.610;2022-07-22T01:05:28;16.10;99.90
16327;DHT22;34812;49.846;9.610;2022-07-22T01:06:30;16.10;99.90
16327;DHT22;34812;49.846;9.610;2022-07-22T01:07:32;16.10;99.90
16327;DHT22;34812;49.846;9.610;2022-07-22T01:08:33;16.10;99.90
16327;DHT22;34812;49.846;9.610;2022-07-22T01:09:35;16.10;99.90
16327;DHT22;34812;49.846;9.610;2022-07-22T01:10:35;16.00;99.90
16327;DHT22;34812;49.846;9.610;2022-07-22T01:11:37;16.00;99.90
16327;DHT22;34812;49.846;9.610;2022-07-22T01:12:38;16.00;99.90
16327;DHT22;34812;49.846;9.610;2022-07-22T01:13:40;16.00;99.90
16327;DHT22;34812;49.846;9.610;2022-07-22T01:14:41;15.90;99.90
16327;DHT22;34812;49.846;9.610;2022-07-22T01:15:43;15.90;99.90
16327;DHT22;34812;49.846;9.610;2022-07-22T01:16:45;15.90;99.90
16327;DHT22;34812;49.846;9.610;2022-07-22T01:17:47;15.90;99.90
16327;DHT22;34812;49.846;9.610;2022-07-22T01:18:48;15.90;99.90
16327;DHT22;34812;49.846;9.610;2022-07-22T01:19:50;15.90;99.90
16327;DHT22;34812;49.846;9.610;2022-07-22T01:20:52;15.90;99.90
16327;DHT22;34812;49.846;9.610;2022-07-22T01:21:53;15.90;99.90
16327;DHT22;34812;49.846;9.610;2022-07-22T01:22:54;15.90;99.90
16327;DHT22;34812;49.846;9.610;2022-07-22T01:23:56;15.90;99.90
16327;DHT22;34812;49.846;9.610;2022-07-22T01:24:57;15.90;99.90
16327;DHT22;34812;49.846;9.610;2022-07-22T01:25:59;15.90;99.90
16327;DHT22;34812;49.846;9.610;2022-07-22T01:27:00;15.80;99.90
16327;DHT22;34812;49.846;9.610;2022-07-22T01:28:02;15.80;99.90
16327;DHT22;34812;49.846;9.610;2022-07-22T01:29:03;15.80;99.90
16327;DHT22;34812;49.846;9.610;2022-07-22T01:30:06;15.70;99.90
16327;DHT22;34812;49.846;9.610;2022-07-22T01:31:08;15.70;99.90
16327;DHT22;34812;49.846;9.610;2022-07-22T01:32:09;15.70;99.90
16327;DHT22;34812;49.846;9.610;2022-07-22T01:33:10;15.70;99.90
16327;DHT22;34812;49.846;9.610;2022-07-22T01:34:12;15.70;99.90
16327;DHT22;34812;49.846;9.610;2022-07-22T01:35:13;15.70;99.90
16327;DHT22;34812;49.846;9.610;2022-07-22T01:36:16;15.70;99.90
16327;DHT22;34812;49.846;9.610;2022-07-22T01:37:18;15.70;99.90
16327;DHT22;34812;49.846;9.610;2022-07-22T01:38:19;15.70;99.90
16327;DHT22;34812;49.846;9.610;2022-07-22T01:39:21;15.70;99.90
16327;DHT22;34812;49.846;9.610;2022-07-22T01:40:21;15.70;99.90
16327;DHT22;34812;49.846;9.610;2022-07-22T01:41:23;15.60;99.90
16327;DHT22;34812;49.846;9.610;2022-07-22T01:42:24;15.60;99.90
16327;DHT22;34812;49.846;9.610;2022-07-22T01:43:25;15.70;99.90
16327;DHT22;34812;49.846;9.610;2022-07-22T01:44:26;15.60;99.90
16327;DHT22;34812;49.846;9.610;2022-07-22T01:45:28;15.60;99.90
16327;DHT22;34812;49.846;9.610;2022-07-22T01:46:29;15.60;99.90
16327;DHT22;34812;49.846;9.610;2022-07-22T01:47:30;15.60;99.90
16327;DHT22;34812;49.846;9.610;2022-07-22T01:48:31;15.60;99.90
16327;DHT22;34812;49.846;9.610;2022-07-22T01:49:33;15.50;99.90
16327;DHT22;34812;49.846;9.610;2022-07-22T01:50:35;15.50;99.90
16327;DHT22;34812;49.846;9.610;2022-07-22T01:51:38;15.50;99.90
16327;DHT22;34812;49.846;9.610;2022-07-22T01:52:40;15.50;99.90
16327;DHT22;34812;49.846;9.610;2022-07-22T01:53:41;15.50;99.90
16327;DHT22;34812;49.846;9.610;2022-07-22T01:54:42;15.50;99.90
16327;DHT22;34812;49.846;9.610;2022-07-22T01:55:44;15.50;99.90
16327;DHT22;34812;49.846;9.610;2022-07-22T01:56:45;15.50;99.90
16327;DHT22;34812;49.846;9.610;2022-07-22T01:57:47;15.50;99.90
16327;DHT22;34812;49.846;9.610;2022-07-22T01:58:47;15.50;99.90
16327;DHT22;34812;49.846;9.610;2022-07-22T01:59:49;15.50;99.90
16327;DHT22;34812;49.846;9.610;2022-07-22T02:00:50;15.50;99.90
16327;DHT22;34812;49.846;9.610;2022-07-22T02:01:51;15.50;99.90
16327;DHT22;34812;49.846;9.610;2022-07-22T02:02:52;15.50;99.90
16327;DHT22;34812;49.846;9.610;2022-07-22T02:03:54;15.50;99.90
16327;DHT22;34812;49.846;9.610;2022-07-22T02:04:55;15.50;99.90
16327;DHT22;34812;49.846;9.610;2022-07-22T02:05:56;15.40;99.90
16327;DHT22;34812;49.846;9.610;2022-07-22T02:06:58;15.40;99.90
16327;DHT22;34812;49.846;9.610;2022-07-22T02:08:01;15.40;99.90
16327;DHT22;34812;49.846;9.610;2022-07-22T02:09:02;15.30;99.90
16327;DHT22;34812;49.846;9.610;2022-07-22T02:10:05;15.30;99.90
16327;DHT22;34812;49.846;9.610;2022-07-22T02:11:06;15.30;99.90
16327;DHT22;34812;49.846;9.610;2022-07-22T02:12:08;15.30;99.90
16327;DHT22;34812;49.846;9.610;2022-07-22T02:13:09;15.20;99.90
16327;DHT22;34812;49.846;9.610;2022-07-22T02:14:11;15.20;99.90
16327;DHT22;34812;49.846;9.610;2022-07-22T02:15:11;15.20;99.90
16327;DHT22;34812;49.846;9.610;2022-07-22T02:16:13;15.20;99.90
16327;DHT22;34812;49.846;9.610;2022-07-22T02:17:14;15.20;99.90
16327;DHT22;34812;49.846;9.610;2022-07-22T02:18:17;15.20;99.90
16327;DHT22;34812;49.846;9.610;2022-07-22T02:19:18;15.20;99.90
16327;DHT22;34812;49.846;9.610;2022-07-22T02:20:20;15.20;99.90
16327;DHT22;34812;49.846;9.610;2022-07-22T02:21:21;15.20;99.90
16327;DHT22;34812;49.846;9.610;2022-07-22T02:22:24;15.20;99.90
16327;DHT22;34812;49.846;9.610;2022-07-22T02:23:25;15.20;99.90
16327;DHT22;34812;49.846;9.610;2022-07-22T02:24:27;15.20;99.90
16327;DHT22;34812;49.846;9.610;2022-07-22T02:25:27;15.20;99.90
16327;DHT22;34812;49.846;9.610;2022-07-22T02:26:29;15.10;99.90
16327;DHT22;34812;49.846;9.610;2022-07-22T02:27:30;15.10;99.90
16327;DHT22;34812;49.846;9.610;2022-07-22T02:28:31;15.10;99.90
16327;DHT22;34812;49.846;9.610;2022-07-22T02:29:32;15.10;99.90
16327;DHT22;34812;49.846;9.610;2022-07-22T02:30:34;15.10;99.90
16327;DHT22;34812;49.846;9.610;2022-07-22T02:31:36;15.10;99.90
16327;DHT22;34812;49.846;9.610;2022-07-22T02:32:37;15.00;99.90
16327;DHT22;34812;49.846;9.610;2022-07-22T02:33:38;15.00;99.90
16327;DHT22;34812;49.846;9.610;2022-07-22T02:34:39;15.00;99.90
16327;DHT22;34812;49.846;9.610;2022-07-22T02:35:41;15.00;99.90
16327;DHT22;34812;49.846;9.610;2022-07-22T02:36:41;15.00;99.90
16327;DHT22;34812;49.846;9.610;2022-07-22T02:37:44;15.00;99.90
16327;DHT22;34812;49.846;9.610;2022-07-22T02:38:45;14.90;99.90
16327;DHT22;34812;49.846;9.610;2022-07-22T02:39:47;14.90;99.90
16327;DHT22;34812;49.846;9.610;2022-07-22T02:40:48;14.90;99.90
16327;DHT22;34812;49.846;9.610;2022-07-22T02:41:49;14.90;99.90
16327;DHT22;34812;49.846;9.610;2022-07-22T02:42:50;14.90;99.90
16327;DHT22;34812;49.846;9.610;2022-07-22T02:43:53;14.80;99.90
16327;DHT22;34812;49.846;9.610;2022-07-22T02:44:55;14.90;99.90
16327;DHT22;34812;49.846;9.610;2022-07-22T02:45:56;14.90;99.90
16327;DHT22;34812;49.846;9.610;2022-07-22T02:46:57;14.90;99.90
16327;DHT22;34812;49.846;9.610;2022-07-22T02:47:59;14.80;99.90
16327;DHT22;34812;49.846;9.610;2022-07-22T02:48:59;14.80;99.90
16327;DHT22;34812;49.846;9.610;2022-07-22T02:50:01;14.80;99.90
16327;DHT22;34812;49.846;9.610;2022-07-22T02:51:02;14.80;99.90
16327;DHT22;34812;49.846;9.610;2022-07-22T02:52:04;14.80;99.90
16327;DHT22;34812;49.846;9.610;2022-07-22T02:53:06;14.80;99.90
16327;DHT22;34812;49.846;9.610;2022-07-22T02:54:08;14.80;99.90
16327;DHT22;34812;49.846;9.610;2022-07-22T02:55:09;14.70;99.90
16327;DHT22;34812;49.846;9.610;2022-07-22T02:56:10;14.70;99.90
16327;DHT22;34812;49.846;9.610;2022-07-22T02:57:11;14.70;99.90
16327;DHT22;34812;49.846;9.610;2022-07-22T02:58:13;14.70;99.90
16327;DHT22;34812;49.846;9.610;2022-07-22T02:59:14;14.70;99.90
16327;DHT22;34812;49.846;9.610;2022-07-22T03:00:16;14.70;99.90
16327;DHT22;34812;49.846;9.610;2022-07-22T03:01:17;14.80;99.90
16327;DHT22;34812;49.846;9.610;2022-07-22T03:02:19;14.80;99.90
16327;DHT22;34812;49.846;9.610;2022-07-22T03:03:19;14.80;99.90
16327;DHT22;34812;49.846;9.610;2022-07-22T03:04:21;14.80;99.90
16327;DHT22;34812;49.846;9.610;2022-07-22T03:05:22;14.80;99.90
16327;DHT22;34812;49.846;9.610;2022-07-22T03:06:24;14.80;99.90
16327;DHT22;34812;49.846;9.610;2022-07-22T03:07:24;14.80;99.90
16327;DHT22;34812;49.846;9.610;2022-07-22T03:08:27;14.80;99.90
16327;DHT22;34812;49.846;9.610;2022-07-22T03:09:28;14.70;99.90
16327;DHT22;34812;49.846;9.610;2022-07-22T03:10:30;14.70;99.90
16327;DHT22;34812;49.846;9.610;2022-07-22T03:11:30;14.70;99.90
16327;DHT22;34812;49.846;9.610;2022-07-22T03:12:32;14.70;99.90
16327;DHT22;34812;49.846;9.610;2022-07-22T03:13:33;14.70;99.90
16327;DHT22;34812;49.846;9.610;2022-07-22T03:14:35;14.70;99.90
16327;DHT22;34812;49.846;9.610;2022-07-22T03:15:35;14.70;99.90
16327;DHT22;34812;49.846;9.610;2022-07-22T03:16:37;14.70;99.90
16327;DHT22;34812;49.846;9.610;2022-07-22T03:17:38;14.70;99.90
16327;DHT22;34812;49.846;9.610;2022-07-22T03:18:40;14.60;99.90
16327;DHT22;34812;49.846;9.610;2022-07-22T03:19:41;14.60;99.90
16327;DHT22;34812;49.846;9.610;2022-07-22T03:20:42;14.60;99.90
16327;DHT22;34812;49.846;9.610;2022-07-22T03:21:43;14.50;99.90
16327;DHT22;34812;49.846;9.610;2022-07-22T03:22:45;14.60;99.90
16327;DHT22;34812;49.846;9.610;2022-07-22T03:23:47;14.60;99.90
16327;DHT22;34812;49.846;9.610;2022-07-22T03:24:53;14.50;99.90
16327;DHT22;34812;49.846;9.610;2022-07-22T03:25:55;14.50;99.90
16327;DHT22;34812;49.846;9.610;2022-07-22T03:26:56;14.50;99.90
16327;DHT22;34812;49.846;9.610;2022-07-22T03:27:58;14.50;99.90
16327;DHT22;34812;49.846;9.610;2022-07-22T03:28:58;14.50;99.90
16327;DHT22;34812;49.846;9.610;2022-07-22T03:30:00;14.50;99.90
16327;DHT22;34812;49.846;9.610;2022-07-22T03:31:01;14.40;99.90
16327;DHT22;34812;49.846;9.610;2022-07-22T03:32:03;14.40;99.90
16327;DHT22;34812;49.846;9.610;2022-07-22T03:33:04;14.40;99.90
16327;DHT22;34812;49.846;9.610;2022-07-22T03:34:06;14.40;99.90
16327;DHT22;34812;49.846;9.610;2022-07-22T03:35:07;14.40;99.90
16327;DHT22;34812;49.846;9.610;2022-07-22T03:36:09;14.40;99.90
16327;DHT22;34812;49.846;9.610;2022-07-22T03:37:10;14.40;99.90
16327;DHT22;34812;49.846;9.610;2022-07-22T03:38:11;14.40;99.90
16327;DHT22;34812;49.846;9.610;2022-07-22T03:39:14;14.40;99.90
16327;DHT22;34812;49.846;9.610;2022-07-22T03:40:15;14.30;99.90
16327;DHT22;34812;49.846;9.610;2022-07-22T03:41:17;14.30;99.90
16327;DHT22;34812;49.846;9.610;2022-07-22T03:42:17;14.30;99.90
16327;DHT22;34812;49.846;9.610;2022-07-22T03:43:19;14.30;99.90
16327;DHT22;34812;49.846;9.610;2022-07-22T03:44:20;14.30;99.90
16327;DHT22;34812;49.846;9.610;2022-07-22T03:45:21;14.30;99.90
16327;DHT22;34812;49.846;9.610;2022-07-22T03:46:22;14.30;99.90
16327;DHT22;34812;49.846;9.610;2022-07-22T03:47:24;14.30;99.90
16327;DHT22;34812;49.846;9.610;2022-07-22T03:48:25;14.30;99.90
16327;DHT22;34812;49.846;9.610;2022-07-22T03:49:27;14.30;99.90
16327;DHT22;34812;49.846;9.610;2022-07-22T03:50:30;14.30;99.90
16327;DHT22;34812;49.846;9.610;2022-07-22T03:51:31;14.30;99.90
16327;DHT22;34812;49.846;9.610;2022-07-22T03:52:32;14.30;99.90
16327;DHT22;34812;49.846;9.610;2022-07-22T03:53:34;14.30;99.90
16327;DHT22;34812;49.846;9.610;2022-07-22T03:54:36;14.30;99.90
16327;DHT22;34812;49.846;9.610;2022-07-22T03:55:37;14.30;99.90
16327;DHT22;34812;49.846;9.610;2022-07-22T03:56:38;14.30;99.90
16327;DHT22;34812;49.846;9.610;2022-07-22T03:57:40;14.20;99.90
16327;DHT22;34812;49.846;9.610;2022-07-22T03:58:41;14.20;99.90
16327;DHT22;34812;49.846;9.610;2022-07-22T03:59:42;14.30;99.90
16327;DHT22;34812;49.846;9.610;2022-07-22T04:00:43;14.20;99.90
16327;DHT22;34812;49.846;9.610;2022-07-22T04:01:45;14.20;99.90
16327;DHT22;34812;49.846;9.610;2022-07-22T04:02:46;14.20;99.90
16327;DHT22;34812;49.846;9.610;2022-07-22T04:03:47;14.20;99.90
16327;DHT22;34812;49.846;9.610;2022-07-22T04:04:49;14.20;99.90
16327;DHT22;34812;49.846;9.610;2022-07-22T04:05:50;14.30;99.90
16327;DHT22;34812;49.846;9.610;2022-07-22T04:06:51;14.30;99.90
16327;DHT22;34812;49.846;9.610;2022-07-22T04:07:53;14.30;99.90
16327;DHT22;34812;49.846;9.610;2022-07-22T04:08:54;14.40;99.90
16327;DHT22;34812;49.846;9.610;2022-07-22T04:09:57;14.40;99.90
16327;DHT22;34812;49.846;9.610;2022-07-22T04:11:05;14.40;99.90
16327;DHT22;34812;49.846;9.610;2022-07-22T04:12:07;14.40;99.90
16327;DHT22;34812;49.846;9.610;2022-07-22T04:13:08;14.40;99.90
16327;DHT22;34812;49.846;9.610;2022-07-22T04:14:10;14.40;99.90
16327;DHT22;34812;49.846;9.610;2022-07-22T04:15:10;14.50;99.90
16327;DHT22;34812;49.846;9.610;2022-07-22T04:16:12;14.50;99.90
16327;DHT22;34812;49.846;9.610;2022-07-22T04:17:13;14.60;99.90
16327;DHT22;34812;49.846;9.610;2022-07-22T04:18:14;14.70;99.90
16327;DHT22;34812;49.846;9.610;2022-07-22T04:19:17;14.70;99.90
16327;DHT22;34812;49.846;9.610;2022-07-22T04:20:19;14.70;99.90
16327;DHT22;34812;49.846;9.610;2022-07-22T04:21:20;14.80;99.90
16327;DHT22;34812;49.846;9.610;2022-07-22T04:22:22;14.90;99.90
16327;DHT22;34812;49.846;9.610;2022-07-22T04:23:22;14.90;99.90
16327;DHT22;34812;49.846;9.610;2022-07-22T04:24:24;14.90;99.90
16327;DHT22;34812;49.846;9.610;2022-07-22T04:25:26;15.00;99.90
16327;DHT22;34812;49.846;9.610;2022-07-22T04:26:28;15.00;99.90
16327;DHT22;34812;49.846;9.610;2022-07-22T04:27:28;15.10;99.90
16327;DHT22;34812;49.846;9.610;2022-07-22T04:28:32;15.20;99.90
16327;DHT22;34812;49.846;9.610;2022-07-22T04:29:33;15.20;99.90
16327;DHT22;34812;49.846;9.610;2022-07-22T04:30:35;15.30;99.90
16327;DHT22;34812;49.846;9.610;2022-07-22T04:31:35;15.40;99.90
16327;DHT22;34812;49.846;9.610;2022-07-22T04:32:37;15.50;99.90
16327;DHT22;34812;49.846;9.610;2022-07-22T04:33:38;15.50;99.90
16327;DHT22;34812;49.846;9.610;2022-07-22T04:34:39;15.60;99.90
16327;DHT22;34812;49.846;9.610;2022-07-22T04:35:40;15.70;99.90
16327;DHT22;34812;49.846;9.610;2022-07-22T04:36:42;15.70;99.90
16327;DHT22;34812;49.846;9.610;2022-07-22T04:37:42;15.80;99.90
16327;DHT22;34812;49.846;9.610;2022-07-22T04:38:44;15.90;99.90
16327;DHT22;34812;49.846;9.610;2022-07-22T04:39:45;15.90;99.90
16327;DHT22;34812;49.846;9.610;2022-07-22T04:40:48;16.00;99.90
16327;DHT22;34812;49.846;9.610;2022-07-22T04:41:48;16.00;99.90
16327;DHT22;34812;49.846;9.610;2022-07-22T04:42:50;16.10;99.90
16327;DHT22;34812;49.846;9.610;2022-07-22T04:43:51;16.10;99.90
16327;DHT22;34812;49.846;9.610;2022-07-22T04:44:53;16.20;99.90
16327;DHT22;34812;49.846;9.610;2022-07-22T04:45:55;16.20;99.90
16327;DHT22;34812;49.846;9.610;2022-07-22T04:46:56;16.20;99.90
16327;DHT22;34812;49.846;9.610;2022-07-22T04:47:58;16.30;99.90
16327;DHT22;34812;49.846;9.610;2022-07-22T04:48:58;16.30;99.90
16327;DHT22;34812;49.846;9.610;2022-07-22T04:50:00;16.40;99.90
16327;DHT22;34812;49.846;9.610;2022-07-22T04:51:01;16.40;99.90
16327;DHT22;34812;49.846;9.610;2022-07-22T04:52:03;16.50;99.90
16327;DHT22;34812;49.846;9.610;2022-07-22T04:53:04;16.50;99.90
16327;DHT22;34812;49.846;9.610;2022-07-22T04:54:06;16.50;99.90
16327;DHT22;34812;49.846;9.610;2022-07-22T04:55:07;16.60;99.90
16327;DHT22;34812;49.846;9.610;2022-07-22T04:56:10;16.60;99.90
16327;DHT22;34812;49.846;9.610;2022-07-22T04:57:11;16.60;99.90
16327;DHT22;34812;49.846;9.610;2022-07-22T04:58:12;16.70;99.90
16327;DHT22;34812;49.846;9.610;2022-07-22T04:59:13;16.70;99.90
16327;DHT22;34812;49.846;9.610;2022-07-22T05:00:16;16.70;99.90
16327;DHT22;34812;49.846;9.610;2022-07-22T05:01:17;16.80;99.90
16327;DHT22;34812;49.846;9.610;2022-07-22T05:02:19;16.80;99.90
16327;DHT22;34812;49.846;9.610;2022-07-22T05:03:20;16.80;99.90
16327;DHT22;34812;49.846;9.610;2022-07-22T05:04:21;16.90;99.90
16327;DHT22;34812;49.846;9.610;2022-07-22T05:05:23;16.90;99.90
16327;DHT22;34812;49.846;9.610;2022-07-22T05:06:24;16.80;99.90
16327;DHT22;34812;49.846;9.610;2022-07-22T05:07:25;16.90;99.90
16327;DHT22;34812;49.846;9.610;2022-07-22T05:08:27;16.80;99.90
16327;DHT22;34812;49.846;9.610;2022-07-22T05:09:28;16.60;99.90
16327;DHT22;34812;49.846;9.610;2022-07-22T05:10:29;16.60;99.90
16327;DHT22;34812;49.846;9.610;2022-07-22T05:11:31;16.70;99.90
16327;DHT22;34812;49.846;9.610;2022-07-22T05:12:33;16.70;99.90
16327;DHT22;34812;49.846;9.610;2022-07-22T05:13:34;16.70;99.90
16327;DHT22;34812;49.846;9.610;2022-07-22T05:14:36;16.70;99.90
16327;DHT22;34812;49.846;9.610;2022-07-22T05:15:37;16.70;99.90
16327;DHT22;34812;49.846;9.610;2022-07-22T05:16:38;16.70;99.90
16327;DHT22;34812;49.846;9.610;2022-07-22T05:17:39;16.80;99.90
16327;DHT22;34812;49.846;9.610;2022-07-22T05:18:41;16.80;99.90
16327;DHT22;34812;49.846;9.610;2022-07-22T05:19:41;16.90;99.90
16327;DHT22;34812;49.846;9.610;2022-07-22T05:20:44;16.90;99.90
16327;DHT22;34812;49.846;9.610;2022-07-22T05:21:44;16.90;99.90
16327;DHT22;34812;49.846;9.610;2022-07-22T05:22:46;16.90;99.90
16327;DHT22;34812;49.846;9.610;2022-07-22T05:23:47;17.00;99.90
16327;DHT22;34812;49.846;9.610;2022-07-22T05:24:49;17.00;99.90
16327;DHT22;34812;49.846;9.610;2022-07-22T05:25:49;17.10;99.90
16327;DHT22;34812;49.846;9.610;2022-07-22T05:26:52;17.10;99.90
16327;DHT22;34812;49.846;9.610;2022-07-22T05:27:55;17.20;99.90
16327;DHT22;34812;49.846;9.610;2022-07-22T05:28:56;17.20;99.90
16327;DHT22;34812;49.846;9.610;2022-07-22T05:29:57;17.30;99.90
16327;DHT22;34812;49.846;9.610;2022-07-22T05:30:59;17.30;99.90
16327;DHT22;34812;49.846;9.610;2022-07-22T05:32:00;17.30;99.90
16327;DHT22;34812;49.846;9.610;2022-07-22T05:33:01;17.30;99.90
16327;DHT22;34812;49.846;9.610;2022-07-22T05:34:02;17.40;99.90
16327;DHT22;34812;49.846;9.610;2022-07-22T05:35:04;17.40;99.90
16327;DHT22;34812;49.846;9.610;2022-07-22T05:36:06;17.40;99.90
16327;DHT22;34812;49.846;9.610;2022-07-22T05:37:09;17.40;99.90
16327;DHT22;34812;49.846;9.610;2022-07-22T05:38:10;17.50;99.90
16327;DHT22;34812;49.846;9.610;2022-07-22T05:39:12;17.50;99.90
16327;DHT22;34812;49.846;9.610;2022-07-22T05:40:13;17.60;99.90
16327;DHT22;34812;49.846;9.610;2022-07-22T05:41:15;17.60;99.90
16327;DHT22;34812;49.846;9.610;2022-07-22T05:42:17;17.60;99.90
16327;DHT22;34812;49.846;9.610;2022-07-22T05:43:18;17.70;99.90
16327;DHT22;34812;49.846;9.610;2022-07-22T05:44:19;17.80;99.90
16327;DHT22;34812;49.846;9.610;2022-07-22T05:45:21;17.90;99.90
16327;DHT22;34812;49.846;9.610;2022-07-22T05:46:22;17.90;99.90
16327;DHT22;34812;49.846;9.610;2022-07-22T05:47:23;18.00;99.90
16327;DHT22;34812;49.846;9.610;2022-07-22T05:48:24;18.10;99.90
16327;DHT22;34812;49.846;9.610;2022-07-22T05:49:26;18.20;99.90
16327;DHT22;34812;49.846;9.610;2022-07-22T05:50:28;18.20;99.90
16327;DHT22;34812;49.846;9.610;2022-07-22T05:51:29;18.30;99.90
16327;DHT22;34812;49.846;9.610;2022-07-22T05:52:30;18.30;99.90
16327;DHT22;34812;49.846;9.610;2022-07-22T05:53:31;18.30;99.90
16327;DHT22;34812;49.846;9.610;2022-07-22T05:54:33;18.30;99.90
16327;DHT22;34812;49.846;9.610;2022-07-22T05:55:34;18.30;99.90
16327;DHT22;34812;49.846;9.610;2022-07-22T05:56:35;18.40;99.90
16327;DHT22;34812;49.846;9.610;2022-07-22T05:57:38;18.40;99.90
16327;DHT22;34812;49.846;9.610;2022-07-22T05:58:40;18.50;99.90
16327;DHT22;34812;49.846;9.610;2022-07-22T05:59:42;18.50;99.90
16327;DHT22;34812;49.846;9.610;2022-07-22T06:00:43;18.50;99.90
16327;DHT22;34812;49.846;9.610;2022-07-22T06:01:45;18.50;99.90
16327;DHT22;34812;49.846;9.610;2022-07-22T06:02:46;18.50;99.90
16327;DHT22;34812;49.846;9.610;2022-07-22T06:03:47;18.60;99.90
16327;DHT22;34812;49.846;9.610;2022-07-22T06:04:49;18.70;99.90
16327;DHT22;34812;49.846;9.610;2022-07-22T06:05:50;18.70;99.90
16327;DHT22;34812;49.846;9.610;2022-07-22T06:06:52;18.80;99.90
16327;DHT22;34812;49.846;9.610;2022-07-22T06:07:52;18.80;99.90
16327;DHT22;34812;49.846;9.610;2022-07-22T06:08:54;18.80;99.90
16327;DHT22;34812;49.846;9.610;2022-07-22T06:09:56;18.90;99.90
16327;DHT22;34812;49.846;9.610;2022-07-22T06:10:57;19.00;99.90
16327;DHT22;34812;49.846;9.610;2022-07-22T06:11:59;19.10;99.90
16327;DHT22;34812;49.846;9.610;2022-07-22T06:13:01;19.10;99.90
16327;DHT22;34812;49.846;9.610;2022-07-22T06:14:03;19.20;99.90
16327;DHT22;34812;49.846;9.610;2022-07-22T06:15:04;19.30;99.90
16327;DHT22;34812;49.846;9.610;2022-07-22T06:16:07;19.40;99.90
16327;DHT22;34812;49.846;9.610;2022-07-22T06:17:07;19.40;99.90
16327;DHT22;34812;49.846;9.610;2022-07-22T06:18:09;19.40;99.90
16327;DHT22;34812;49.846;9.610;2022-07-22T06:19:10;19.40;99.90
16327;DHT22;34812;49.846;9.610;2022-07-22T06:20:11;19.30;99.90
16327;DHT22;34812;49.846;9.610;2022-07-22T06:21:12;19.30;99.90
16327;DHT22;34812;49.846;9.610;2022-07-22T06:22:14;19.30;99.90
16327;DHT22;34812;49.846;9.610;2022-07-22T06:23:17;19.20;99.90
16327;DHT22;34812;49.846;9.610;2022-07-22T06:24:19;19.30;99.90
16327;DHT22;34812;49.846;9.610;2022-07-22T06:25:20;19.40;99.90
16327;DHT22;34812;49.846;9.610;2022-07-22T06:26:21;19.30;99.90
16327;DHT22;34812;49.846;9.610;2022-07-22T06:27:22;19.40;99.90
16327;DHT22;34812;49.846;9.610;2022-07-22T06:28:25;19.50;99.90